Time;durP1;ratioP1;P1;durP2;ratioP2;P2;SDS_P1;SDS_P2;PMS_P1;PMS_P2;Temp;Humidity;BMP_temperature;BMP_pressure;BME280_temperature;BME280_humidity;BME280_pressure;Samples;Min_cycle;Max_cycle;Signal;HPM_P1;HPM_P2
2023/08/07 00:00:58;;;;;;;;;;;;;;;30.43;32.45;96918.53;5075446;28;19927;-83
2023/08/07 00:03:24;;;;;;;;;;;;;;;30.35;33.43;96916.66;5090840;27;19916;-83
2023/08/07 00:05:51;;;;;;;;;;;;;;;30.43;32.99;96917.75;5089204;28;19920;-83
2023/08/07 00:08:17;;;;;;;;;;;;;;;30.37;32.98;96909.22;5086916;27;19927;-82
2023/08/07 00:10:44;;;;;;;;;;;;;;;30.41;32.95;96909.75;5072270;27;20300;-83
2023/08/07 00:13:10;;;;;;;;;;;;;;;30.27;32.51;96916.31;5059706;27;19925;-83
2023/08/07 00:15:39;;;;;;;;;;;;;;;30.03;33.27;96910.22;5052435;28;19925;-83
2023/08/07 00:18:05;;;;;;;;;;;;;;;29.89;33.41;96911.16;5056191;28;19965;-83
2023/08/07 00:20:31;;;;;;;;;;;;;;;30.07;33.47;96905.13;5055041;28;19925;-83
2023/08/07 00:22:57;;;;;;;;;;;;;;;30.35;32.94;96908.16;5062536;28;20445;-83
2023/08/07 00:25:23;;;;;;;;;;;;;;;30.56;32.64;96903.94;5071020;28;19920;-83
2023/08/07 00:27:49;;;;;;;;;;;;;;;30.65;32.05;96912.22;5058407;28;19928;-83
2023/08/07 00:30:15;;;;;;;;;;;;;;;30.63;32.63;96906.28;5057618;28;20404;-83
2023/08/07 00:32:41;;;;;;;;;;;;;;;30.54;32.41;96907.28;5060861;28;19927;-83
2023/08/07 00:35:10;;;;;;;;;;;;;;;30.08;32.36;96901.75;5059086;27;19927;-83
2023/08/07 00:37:36;;;;;;;;;;;;;;;29.99;33.60;96898.38;5056634;28;19928;-83
2023/08/07 00:40:03;;;;;;;;;;;;;;;30.33;33.24;96894.53;5070001;28;19973;-83
2023/08/07 00:42:29;;;;;;;;;;;;;;;30.58;32.84;96895.69;5063676;28;20433;-83
2023/08/07 00:44:55;;;;;;;;;;;;;;;30.66;32.24;96894.72;5050020;28;19963;-83
2023/08/07 00:47:21;;;;;;;;;;;;;;;30.55;32.57;96897.47;5068693;28;19920;-82
2023/08/07 00:49:47;;;;;;;;;;;;;;;30.64;32.16;96893.69;5055435;27;19920;-83
2023/08/07 00:52:13;;;;;;;;;;;;;;;30.69;33.42;96893.69;5051070;28;20004;-83
2023/08/07 00:54:39;;;;;;;;;;;;;;;30.63;33.41;96895.72;5064708;28;20422;-83
2023/08/07 00:57:12;;;;;;;;;;;;;;;30.57;32.98;96885.66;5052096;28;19928;-83
2023/08/07 00:59:39;;;;;;;;;;;;;;;30.32;32.62;96892.16;5054204;28;19920;-83
2023/08/07 01:02:05;;;;;;;;;;;;;;;29.93;33.19;96889.03;5071108;28;20262;-83
2023/08/07 01:04:31;;;;;;;;;;;;;;;29.96;33.40;96891.66;5064653;28;19917;-83
2023/08/07 01:06:57;;;;;;;;;;;;;;;29.79;33.32;96882.25;5055331;28;19928;-83
2023/08/07 01:09:24;;;;;;;;;;;;;;;29.88;33.26;96882.06;5056393;27;19921;-83
2023/08/07 01:11:55;;;;;;;;;;;;;;;30.00;33.48;96886.53;5052244;27;19924;-83
2023/08/07 01:14:24;;;;;;;;;;;;;;;30.14;32.79;96886.88;5071672;28;20305;-83
2023/08/07 01:16:52;;;;;;;;;;;;;;;30.13;32.52;96883.28;5071522;28;20011;-83
2023/08/07 01:19:24;;;;;;;;;;;;;;;30.00;33.22;96888.59;5071974;27;20322;-83
2023/08/07 01:22:03;;;;;;;;;;;;;;;30.06;32.75;96884.50;5090134;27;19916;-83
2023/08/07 01:24:29;;;;;;;;;;;;;;;29.98;32.62;96880.59;5071828;28;19927;-83
2023/08/07 01:26:57;;;;;;;;;;;;;;;29.76;33.08;96874.75;5085638;28;19916;-83
2023/08/07 01:29:33;;;;;;;;;;;;;;;29.75;33.32;96878.84;5085264;28;19920;-83
2023/08/07 01:32:00;;;;;;;;;;;;;;;29.97;33.18;96881.88;5079229;28;20007;-84
2023/08/07 01:34:26;;;;;;;;;;;;;;;29.63;33.30;96891.34;5072443;28;19935;-83
2023/08/07 01:36:53;;;;;;;;;;;;;;;29.25;33.61;96886.84;5079889;28;19968;-83
2023/08/07 01:39:19;;;;;;;;;;;;;;;29.07;33.90;96892.00;5081527;28;19920;-83
2023/08/07 01:41:46;;;;;;;;;;;;;;;29.13;34.45;96882.31;5079662;27;19924;-83
2023/08/07 01:44:12;;;;;;;;;;;;;;;29.60;33.52;96885.88;5076129;28;19921;-83
2023/08/07 01:46:38;;;;;;;;;;;;;;;29.89;33.32;96885.69;5076748;28;19921;-83
2023/08/07 01:49:04;;;;;;;;;;;;;;;29.90;32.87;96890.81;5065029;27;20390;-83
2023/08/07 01:51:30;;;;;;;;;;;;;;;30.00;33.32;96894.25;5070226;27;19928;-83
2023/08/07 01:53:56;;;;;;;;;;;;;;;30.27;32.50;96890.06;5080225;28;19920;-83
2023/08/07 01:56:22;;;;;;;;;;;;;;;30.14;32.70;96892.53;5057519;28;19924;-83
2023/08/07 01:58:48;;;;;;;;;;;;;;;30.17;32.65;96898.00;5070966;27;20309;-83
2023/08/07 02:01:14;;;;;;;;;;;;;;;30.11;32.55;96897.16;5071362;27;19916;-83
2023/08/07 02:03:40;;;;;;;;;;;;;;;30.02;32.38;96900.97;5075040;27;19925;-83
2023/08/07 02:06:06;;;;;;;;;;;;;;;29.92;32.85;96898.84;5081027;28;20296;-83
2023/08/07 02:08:32;;;;;;;;;;;;;;;30.14;32.53;96896.16;5079892;27;19920;-83
2023/08/07 02:11:01;;;;;;;;;;;;;;;30.46;31.58;96911.84;5077890;28;19920;-84
2023/08/07 02:13:27;;;;;;;;;;;;;;;30.40;31.77;96915.94;5080533;28;19920;-83
2023/08/07 02:15:53;;;;;;;;;;;;;;;30.44;31.76;96907.97;5067296;28;19927;-84
2023/08/07 02:18:19;;;;;;;;;;;;;;;30.46;32.25;96911.84;5072272;28;19916;-84
2023/08/07 02:20:46;;;;;;;;;;;;;;;30.57;31.63;96908.31;5072334;28;19968;-84
2023/08/07 02:23:12;;;;;;;;;;;;;;;30.09;32.08;96905.38;5090415;27;19923;-83
2023/08/07 02:25:38;;;;;;;;;;;;;;;29.77;32.92;96909.50;5074598;28;20388;-83
2023/08/07 02:28:04;;;;;;;;;;;;;;;30.08;31.90;96904.59;5081806;27;19920;-84
2023/08/07 02:30:33;;;;;;;;;;;;;;;30.18;31.84;96899.53;5090613;28;19916;-84
2023/08/07 02:32:59;;;;;;;;;;;;;;;30.26;31.97;96903.47;5076437;28;20321;-84
2023/08/07 02:35:25;;;;;;;;;;;;;;;30.41;31.46;96909.75;5055851;28;19962;-84
2023/08/07 02:37:51;;;;;;;;;;;;;;;30.54;31.26;96909.31;5079620;28;19960;-83
2023/08/07 02:40:18;;;;;;;;;;;;;;;30.60;31.14;96907.28;5070380;27;19923;-83
2023/08/07 02:42:45;;;;;;;;;;;;;;;30.62;30.43;96905.50;5082865;27;19975;-84
2023/08/07 02:45:11;;;;;;;;;;;;;;;30.54;30.63;96907.28;5081879;28;20273;-84
2023/08/07 02:47:37;;;;;;;;;;;;;;;30.48;30.46;96908.53;5074070;27;19920;-84
2023/08/07 02:50:03;;;;;;;;;;;;;;;30.46;30.54;96906.19;5092653;27;20361;-84
2023/08/07 02:52:29;;;;;;;;;;;;;;;30.43;30.35;96903.59;5094078;28;19916;-83
2023/08/07 02:54:55;;;;;;;;;;;;;;;30.39;30.29;96903.81;5092887;28;19920;-84
2023/08/07 02:57:21;;;;;;;;;;;;;;;30.30;30.74;96904.00;5089656;28;19920;-83
2023/08/07 02:59:47;;;;;;;;;;;;;;;30.00;31.26;96905.56;5079352;28;19927;-83
2023/08/07 03:02:13;;;;;;;;;;;;;;;30.00;30.97;96908.41;5084286;28;19920;-83
2023/08/07 03:04:39;;;;;;;;;;;;;;;30.06;31.06;96912.03;5073489;27;19924;-84
2023/08/07 03:07:05;;;;;;;;;;;;;;;30.18;31.27;96913.69;5074966;28;20280;-83
2023/08/07 03:09:31;;;;;;;;;;;;;;;30.20;31.07;96913.94;5082768;28;19921;-84
2023/08/07 03:12:02;;;;;;;;;;;;;;;30.12;31.16;96915.72;5081601;27;19928;-84
2023/08/07 03:14:29;;;;;;;;;;;;;;;30.15;31.54;96923.22;5074442;28;20385;-83
2023/08/07 03:16:55;;;;;;;;;;;;;;;30.04;31.11;96923.09;5078964;27;20292;-83
2023/08/07 03:19:21;;;;;;;;;;;;;;;29.73;31.65;96929.50;5083633;27;19923;-84
2023/08/07 03:21:47;;;;;;;;;;;;;;;29.65;32.21;96928.38;5074486;27;20537;-83
2023/08/07 03:24:13;;;;;;;;;;;;;;;29.74;31.86;96925.38;5076439;27;19921;-84
2023/08/07 03:26:40;;;;;;;;;;;;;;;29.66;32.33;96927.13;5073051;28;20472;-84
2023/08/07 03:29:06;;;;;;;;;;;;;;;29.68;32.03;96926.63;5073108;27;20020;-84
2023/08/07 03:31:32;;;;;;;;;;;;;;;29.80;31.90;96931.88;5074484;28;19967;-84
2023/08/07 03:33:58;;;;;;;;;;;;;;;29.88;31.92;96935.06;5085425;28;20428;-83
2023/08/07 03:36:24;;;;;;;;;;;;;;;29.49;32.26;96931.81;5076938;28;19962;-84
2023/08/07 03:38:50;;;;;;;;;;;;;;;29.35;32.89;96936.31;5072937;27;19923;-84
2023/08/07 03:41:16;;;;;;;;;;;;;;;29.47;32.66;96942.09;5076096;27;19928;-84
2023/08/07 03:43:42;;;;;;;;;;;;;;;29.60;32.75;96933.97;5073061;27;19944;-83
2023/08/07 03:46:08;;;;;;;;;;;;;;;29.38;32.89;96940.94;5081160;28;19917;-83
2023/08/07 03:48:34;;;;;;;;;;;;;;;29.50;33.10;96941.09;5073496;28;19924;-83
2023/08/07 03:51:10;;;;;;;;;;;;;;;29.52;33.14;96938.53;5072949;28;19917;-84
2023/08/07 03:53:37;;;;;;;;;;;;;;;29.38;33.23;96943.78;5079595;27;20011;-84
2023/08/07 03:56:03;;;;;;;;;;;;;;;29.30;33.67;96944.72;5080448;27;20329;-84
2023/08/07 03:58:29;;;;;;;;;;;;;;;29.43;33.53;96947.94;5079609;27;19956;-83
2023/08/07 04:00:55;;;;;;;;;;;;;;;29.55;33.41;96952.44;5077416;28;19965;-84
2023/08/07 04:03:21;;;;;;;;;;;;;;;29.61;33.39;96950.47;5077111;28;19962;-83
2023/08/07 04:05:51;;;;;;;;;;;;;;;30.04;32.67;96952.19;5084841;28;19925;-84
2023/08/07 04:08:17;;;;;;;;;;;;;;;30.04;32.21;96954.22;5087039;28;19922;-83
2023/08/07 04:10:43;;;;;;;;;;;;;;;29.98;33.01;96961.91;5075375;27;20363;-84
2023/08/07 04:13:09;;;;;;;;;;;;;;;29.97;32.90;96961.13;5073834;27;19920;-83
2023/08/07 04:15:35;;;;;;;;;;;;;;;29.98;32.06;96961.91;5073878;27;19921;-83
2023/08/07 04:18:01;;;;;;;;;;;;;;;29.81;33.00;96966.63;5072928;27;20551;-83
2023/08/07 04:20:27;;;;;;;;;;;;;;;29.71;32.88;96970.91;5077465;27;19968;-83
2023/08/07 04:22:53;;;;;;;;;;;;;;;29.57;33.13;96964.03;5078916;28;19920;-84
2023/08/07 04:25:19;;;;;;;;;;;;;;;29.45;33.69;96965.22;5073628;28;20296;-83
2023/08/07 04:27:45;;;;;;;;;;;;;;;29.34;34.07;96968.69;5085587;28;19921;-84
2023/08/07 04:30:12;;;;;;;;;;;;;;;29.38;34.08;96971.31;5072088;28;19916;-83
2023/08/07 04:32:38;;;;;;;;;;;;;;;29.41;33.25;96964.63;5076808;27;19968;-84
2023/08/07 04:35:04;;;;;;;;;;;;;;;29.20;34.29;96978.03;5077911;27;20502;-83
2023/08/07 04:37:31;;;;;;;;;;;;;;;29.23;34.73;96977.03;5075911;27;19920;-83
2023/08/07 04:39:57;;;;;;;;;;;;;;;29.16;34.17;96974.59;5080985;27;19921;-83
2023/08/07 04:42:23;;;;;;;;;;;;;;;29.42;34.24;96969.03;5085206;28;19928;-84
2023/08/07 04:44:49;;;;;;;;;;;;;;;29.25;34.51;96968.06;5079814;27;19927;-84
2023/08/07 04:47:15;;;;;;;;;;;;;;;29.49;34.13;96962.94;5091935;28;20393;-83
2023/08/07 04:49:41;;;;;;;;;;;;;;;29.28;34.39;96972.72;5079305;28;20023;-84
2023/08/07 04:52:07;;;;;;;;;;;;;;;29.24;33.57;96963.69;5071623;28;20015;-84
2023/08/07 04:54:33;;;;;;;;;;;;;;;29.20;34.57;96975.19;5082625;27;19920;-83
2023/08/07 04:56:59;;;;;;;;;;;;;;;29.27;33.84;96969.13;5073126;27;19939;-84
2023/08/07 04:59:25;;;;;;;;;;;;;;;28.98;34.27;96969.25;5077401;28;19921;-84
2023/08/07 05:01:51;;;;;;;;;;;;;;;29.37;34.01;96970.53;5084542;28;19920;-83
2023/08/07 05:04:17;;;;;;;;;;;;;;;29.61;33.66;96975.94;5080351;28;19929;-84
2023/08/07 05:06:43;;;;;;;;;;;;;;;29.60;33.20;96974.38;5076877;27;19935;-84
2023/08/07 05:09:09;;;;;;;;;;;;;;;29.34;33.50;96980.00;5079097;27;19927;-83
2023/08/07 05:11:35;;;;;;;;;;;;;;;29.68;33.40;96980.38;5079808;27;19976;-84
2023/08/07 05:14:01;;;;;;;;;;;;;;;29.72;32.93;96978.09;5053745;27;19932;-84
2023/08/07 05:16:27;;;;;;;;;;;;;;;29.84;33.02;96982.63;5055068;28;19967;-84
2023/08/07 05:18:53;;;;;;;;;;;;;;;29.70;34.00;96980.66;5056487;28;19920;-83
2023/08/07 05:21:19;;;;;;;;;;;;;;;29.54;34.23;96982.03;5054769;27;19973;-83
2023/08/07 05:23:45;;;;;;;;;;;;;;;29.47;33.90;96981.69;5054177;27;19920;-83
2023/08/07 05:26:11;;;;;;;;;;;;;;;29.76;33.67;96985.13;5050006;27;19956;-82
2023/08/07 05:28:37;;;;;;;;;;;;;;;29.74;33.75;96978.38;5058884;27;20517;-83
2023/08/07 05:31:03;;;;;;;;;;;;;;;29.78;33.28;96976.91;5064958;27;19927;-83
2023/08/07 05:33:29;;;;;;;;;;;;;;;29.71;33.94;96985.03;5072326;27;19921;-83
2023/08/07 05:35:55;;;;;;;;;;;;;;;29.88;34.05;96988.81;5068706;28;20363;-83
2023/08/07 05:38:22;;;;;;;;;;;;;;;30.22;33.34;96985.03;5058142;27;19921;-83
2023/08/07 05:40:48;;;;;;;;;;;;;;;29.99;32.66;96991.78;5057511;27;19955;-83
2023/08/07 05:43:16;;;;;;;;;;;;;;;29.89;32.69;96996.84;5067541;28;19920;-83
2023/08/07 05:45:43;;;;;;;;;;;;;;;30.09;33.52;97002.41;5051187;27;19921;-82
2023/08/07 05:48:09;;;;;;;;;;;;;;;30.22;33.57;96995.59;5057603;27;20389;-83
2023/08/07 05:50:35;;;;;;;;;;;;;;;30.07;33.13;97001.38;5052232;27;19956;-84
2023/08/07 05:53:01;;;;;;;;;;;;;;;29.84;34.37;96997.56;5065625;28;19974;-84
2023/08/07 05:55:27;;;;;;;;;;;;;;;29.54;34.43;96995.38;5058090;27;19989;-83
2023/08/07 05:57:53;;;;;;;;;;;;;;;29.77;33.34;96994.38;5054362;27;20365;-83
2023/08/07 06:00:19;;;;;;;;;;;;;;;29.94;34.08;97001.75;5062884;27;19935;-84
2023/08/07 06:02:46;;;;;;;;;;;;;;;30.18;32.96;97007.13;5061931;28;19917;-84
2023/08/07 06:05:14;;;;;;;;;;;;;;;30.05;33.06;97009.59;5063299;27;20377;-83
2023/08/07 06:07:40;;;;;;;;;;;;;;;30.24;32.42;97016.47;5068788;27;19927;-84
2023/08/07 06:10:06;;;;;;;;;;;;;;;30.08;33.62;97017.84;5058625;27;19920;-84
2023/08/07 06:12:32;;;;;;;;;;;;;;;30.08;33.18;97009.34;5065215;27;19939;-84
2023/08/07 06:14:58;;;;;;;;;;;;;;;29.97;32.35;97016.97;5082468;27;19921;-83
2023/08/07 06:17:24;;;;;;;;;;;;;;;29.63;32.73;97021.47;5090921;28;20368;-83
2023/08/07 06:19:50;;;;;;;;;;;;;;;29.52;32.97;97027.00;5087203;27;19920;-83
2023/08/07 06:22:17;;;;;;;;;;;;;;;29.31;34.79;97025.47;5076400;27;20587;-83
2023/08/07 06:24:43;;;;;;;;;;;;;;;29.34;33.64;97027.28;5082456;27;19920;-84
2023/08/07 06:27:09;;;;;;;;;;;;;;;29.71;33.50;97021.81;5084844;27;20296;-84
2023/08/07 06:29:35;;;;;;;;;;;;;;;29.84;33.46;97023.03;5082987;27;19927;-85
2023/08/07 06:32:01;;;;;;;;;;;;;;;29.91;33.38;97025.41;5081770;27;19920;-83
2023/08/07 06:34:27;;;;;;;;;;;;;;;30.13;34.15;97027.66;5071477;27;19924;-83
2023/08/07 06:36:53;;;;;;;;;;;;;;;29.71;35.08;97021.81;5077486;27;19961;-83
2023/08/07 06:39:19;;;;;;;;;;;;;;;29.56;33.08;97021.13;5075554;27;19921;-84
2023/08/07 06:41:45;;;;;;;;;;;;;;;29.77;35.04;97022.69;5060171;27;19925;-86
2023/08/07 06:44:11;;;;;;;;;;;;;;;30.31;33.38;97024.50;5071482;27;20060;-86
2023/08/07 06:46:37;;;;;;;;;;;;;;;30.69;33.50;97020.47;5078457;27;19955;-87
2023/08/07 06:49:03;;;;;;;;;;;;;;;31.05;32.13;97019.69;5076702;27;19973;-86
2023/08/07 06:51:29;;;;;;;;;;;;;;;31.08;31.66;97026.41;5077512;27;20428;-86
2023/08/07 06:53:55;;;;;;;;;;;;;;;30.92;32.21;97024.25;5072616;27;20403;-85
2023/08/07 06:56:22;;;;;;;;;;;;;;;31.03;33.21;97025.09;5078335;27;20292;-86
2023/08/07 06:58:48;;;;;;;;;;;;;;;31.33;33.04;97023.44;5073703;27;19921;-86
2023/08/07 07:01:14;;;;;;;;;;;;;;;31.63;31.99;97028.72;5069778;27;19964;-85
2023/08/07 07:03:40;;;;;;;;;;;;;;;31.73;33.16;97032.91;5075452;27;20000;-86
2023/08/07 07:06:06;;;;;;;;;;;;;;;31.74;32.95;97038.06;5074146;27;19925;-86
2023/08/07 07:08:32;;;;;;;;;;;;;;;31.72;32.90;97032.13;5083886;27;19989;-86
2023/08/07 07:10:58;;;;;;;;;;;;;;;31.76;31.97;97026.19;5076815;27;19928;-85
2023/08/07 07:13:24;;;;;;;;;;;;;;;31.52;31.70;97035.16;5074672;27;19926;-85
2023/08/07 07:15:54;;;;;;;;;;;;;;;31.21;32.91;97023.88;5081442;27;19924;-85
2023/08/07 07:18:20;;;;;;;;;;;;;;;31.08;31.51;97029.22;5075994;27;19928;-85
2023/08/07 07:20:46;;;;;;;;;;;;;;;31.45;31.32;97032.78;5080012;28;19996;-83
2023/08/07 07:23:12;;;;;;;;;;;;;;;31.72;32.95;97028.50;5073140;27;20483;-85
2023/08/07 07:25:38;;;;;;;;;;;;;;;32.22;32.62;97045.69;5074149;27;19916;-85
2023/08/07 07:28:04;;;;;;;;;;;;;;;31.34;37.19;97029.88;5074847;27;19921;-84
2023/08/07 07:30:30;;;;;;;;;;;;;;;31.06;33.07;97046.75;5077166;27;19924;-85
2023/08/07 07:32:56;;;;;;;;;;;;;;;30.36;35.63;97054.19;5083140;28;19927;-84
2023/08/07 07:35:22;;;;;;;;;;;;;;;30.10;31.44;97051.34;5083158;27;19920;-84
2023/08/07 07:37:48;;;;;;;;;;;;;;;30.16;34.11;97059.88;5074009;27;20301;-85
2023/08/07 07:40:14;;;;;;;;;;;;;;;30.18;32.37;97055.25;5064197;27;19971;-83
2023/08/07 07:42:40;;;;;;;;;;;;;;;30.35;32.92;97058.28;5085424;27;20014;-84
2023/08/07 07:45:06;;;;;;;;;;;;;;;30.36;33.12;97063.47;5084428;27;20056;-83
2023/08/07 07:47:32;;;;;;;;;;;;;;;30.76;30.73;97065.31;5082727;27;19967;-83
2023/08/07 07:50:08;;;;;;;;;;;;;;;30.97;32.94;97063.94;5059291;27;19972;-83
2023/08/07 07:52:34;;;;;;;;;;;;;;;31.55;32.68;97064.56;5078042;27;19924;-83
2023/08/07 07:55:00;;;;;;;;;;;;;;;31.78;31.45;97058.47;5075191;27;20007;-83
2023/08/07 07:57:26;;;;;;;;;;;;;;;31.38;29.76;97064.47;5081405;27;19965;-83
2023/08/07 07:59:53;;;;;;;;;;;;;;;30.97;33.57;97066.03;5076893;27;19920;-81
2023/08/07 08:02:19;;;;;;;;;;;;;;;31.03;31.82;97070.44;5076863;27;19928;-82
2023/08/07 08:04:45;;;;;;;;;;;;;;;30.86;31.90;97077.25;5083356;27;20028;-82
2023/08/07 08:07:11;;;;;;;;;;;;;;;31.20;31.87;97082.66;5077152;27;19977;-82
2023/08/07 08:09:37;;;;;;;;;;;;;;;31.30;32.07;97080.38;5081033;27;20420;-83
2023/08/07 08:12:03;;;;;;;;;;;;;;;31.17;31.28;97086.53;5076625;27;20003;-82
2023/08/07 08:14:29;;;;;;;;;;;;;;;31.28;31.35;97082.97;5083556;28;19920;-82
2023/08/07 08:16:55;;;;;;;;;;;;;;;31.32;30.09;97087.13;5082539;27;19923;-82
2023/08/07 08:19:21;;;;;;;;;;;;;;;31.22;31.41;97085.00;5081669;27;19927;-82
2023/08/07 08:21:47;;;;;;;;;;;;;;;31.64;32.88;97096.34;5085540;27;20312;-82
2023/08/07 08:24:13;;;;;;;;;;;;;;;31.78;31.85;97095.38;5081377;27;19920;-82
2023/08/07 08:26:39;;;;;;;;;;;;;;;31.70;32.05;97099.19;5076544;27;19916;-82
2023/08/07 08:29:05;;;;;;;;;;;;;;;31.45;33.31;97100.91;5072640;28;19928;-82
2023/08/07 08:31:31;;;;;;;;;;;;;;;31.66;33.04;97107.19;5076940;28;19973;-83
2023/08/07 08:33:57;;;;;;;;;;;;;;;31.89;31.68;97106.75;5080175;27;19928;-84
2023/08/07 08:36:23;;;;;;;;;;;;;;;31.47;31.58;97106.06;5068864;27;19921;-84
2023/08/07 08:38:51;;;;;;;;;;;;;;;31.43;31.88;97106.31;5076945;28;20057;-84
2023/08/07 08:41:17;;;;;;;;;;;;;;;31.64;33.20;97099.19;5074124;27;19924;-84
2023/08/07 08:43:45;;;;;;;;;;;;;;;31.70;33.13;97102.81;5075498;27;19964;-85
2023/08/07 08:46:11;;;;;;;;;;;;;;;31.98;32.98;97098.03;5075779;28;19925;-85
2023/08/07 08:48:38;;;;;;;;;;;;;;;32.07;31.98;97102.72;5079774;28;20445;-85
2023/08/07 08:51:06;;;;;;;;;;;;;;;32.33;32.17;97106.13;5078304;28;19928;-84
2023/08/07 08:53:32;;;;;;;;;;;;;;;32.28;35.01;97115.41;5082138;28;19921;-85
2023/08/07 08:55:59;;;;;;;;;;;;;;;32.51;32.96;97104.91;5063457;27;19930;-86
2023/08/07 08:58:25;;;;;;;;;;;;;;;32.48;30.47;97103.06;5077440;27;19921;-85
2023/08/07 09:00:52;;;;;;;;;;;;;;;32.67;32.25;97107.75;5077067;28;19924;-82
2023/08/07 09:03:18;;;;;;;;;;;;;;;32.76;30.24;97112.41;5081360;27;20380;-82
2023/08/07 09:05:45;;;;;;;;;;;;;;;32.22;31.60;97105.34;5079539;28;19921;-83
2023/08/07 09:08:11;;;;;;;;;;;;;;;32.05;31.54;97113.81;5072809;28;19916;-83
2023/08/07 09:10:38;;;;;;;;;;;;;;;32.06;31.40;97112.53;5055088;27;19943;-83
2023/08/07 09:13:05;;;;;;;;;;;;;;;32.29;31.85;97116.97;5083004;27;19960;-83
2023/08/07 09:15:31;;;;;;;;;;;;;;;32.30;29.34;97115.69;5059238;27;19928;-82
2023/08/07 09:17:58;;;;;;;;;;;;;;;32.03;29.63;97122.84;5074575;27;19996;-83
2023/08/07 09:20:24;;;;;;;;;;;;;;;31.92;30.91;97122.78;5075422;27;19958;-82
2023/08/07 09:22:51;;;;;;;;;;;;;;;32.02;31.56;97114.84;5082327;28;19920;-83
2023/08/07 09:25:46;;;;;;;;;;;;;;;31.97;33.05;97116.34;5058057;28;19924;-84
2023/08/07 09:28:13;;;;;;;;;;;;;;;31.86;30.98;97116.28;5081553;28;19924;-83
2023/08/07 09:30:42;;;;;;;;;;;;;;;32.03;31.42;97114.34;5080815;28;19920;-84
2023/08/07 09:33:08;;;;;;;;;;;;;;;31.88;31.90;97118.66;5083420;27;19920;-83
2023/08/07 09:35:34;;;;;;;;;;;;;;;32.25;33.31;97124.19;5080220;27;19928;-83
2023/08/07 09:38:00;;;;;;;;;;;;;;;32.56;31.35;97121.16;5063274;27;19973;-83
2023/08/07 09:40:26;;;;;;;;;;;;;;;32.79;32.39;97119.91;5079250;27;20432;-83
2023/08/07 09:42:53;;;;;;;;;;;;;;;32.61;30.77;97112.66;5082997;28;20015;-82
2023/08/07 09:45:20;;;;;;;;;;;;;;;32.31;31.10;97125.75;5084590;27;19920;-82
2023/08/07 09:47:47;;;;;;;;;;;;;;;32.59;31.63;97132.31;5076202;27;19924;-82
2023/08/07 09:50:17;;;;;;;;;;;;;;;32.50;31.38;97128.94;5054766;27;20368;-82
2023/08/07 09:52:46;;;;;;;;;;;;;;;32.62;30.82;97121.97;5077350;27;19920;-82
2023/08/07 09:55:13;;;;;;;;;;;;;;;32.31;31.64;97127.81;5083490;27;19998;-82
2023/08/07 09:57:39;;;;;;;;;;;;;;;32.50;30.21;97123.25;5083842;28;19988;-82
2023/08/07 10:00:11;;;;;;;;;;;;;;;32.35;28.59;97119.84;5077101;27;19920;-82
2023/08/07 10:02:37;;;;;;;;;;;;;;;32.25;29.90;97116.47;5076385;28;19928;-82
2023/08/07 10:05:05;;;;;;;;;;;;;;;32.28;31.45;97123.19;5082216;27;20015;-83
2023/08/07 10:07:31;;;;;;;;;;;;;;;32.48;31.14;97128.63;5081883;27;19927;-82
2023/08/07 10:09:59;;;;;;;;;;;;;;;32.57;30.23;97132.03;5073149;28;19920;-82
2023/08/07 10:12:28;;;;;;;;;;;;;;;32.37;31.33;97132.22;5076311;27;19924;-83
2023/08/07 10:14:54;;;;;;;;;;;;;;;32.00;31.32;97138.06;5077791;27;20030;-83
2023/08/07 10:17:23;;;;;;;;;;;;;;;31.41;29.96;97134.38;5078962;27;19918;-83
2023/08/07 10:19:51;;;;;;;;;;;;;;;31.39;29.72;97132.03;5083082;28;19920;-82
2023/08/07 10:22:18;;;;;;;;;;;;;;;31.44;32.68;97126.94;5076688;28;19962;-82
2023/08/07 10:24:47;;;;;;;;;;;;;;;31.86;32.98;97130.50;5073872;27;19920;-82
2023/08/07 10:27:15;;;;;;;;;;;;;;;31.95;33.47;97121.75;5074235;27;19928;-83
2023/08/07 10:29:41;;;;;;;;;;;;;;;32.13;32.17;97131.91;5076002;27;19920;-82
2023/08/07 10:32:08;;;;;;;;;;;;;;;32.53;32.16;97120.16;5079034;27;19920;-82
2023/08/07 10:34:34;;;;;;;;;;;;;;;33.35;33.02;97121.44;5080441;27;19967;-82
2023/08/07 10:37:00;;;;;;;;;;;;;;;32.62;36.09;97119.13;5077133;27;19921;-82
2023/08/07 10:39:26;;;;;;;;;;;;;;;33.11;31.66;97129.75;5071921;28;20293;-82
2023/08/07 10:41:54;;;;;;;;;;;;;;;32.44;30.92;97137.41;5074144;27;19920;-82
2023/08/07 10:44:24;;;;;;;;;;;;;;;32.13;31.69;97131.13;5072968;27;20020;-82
2023/08/07 10:46:54;;;;;;;;;;;;;;;31.98;29.37;97137.03;5055655;28;19935;-82
2023/08/07 10:49:35;;;;;;;;;;;;;;;31.43;30.35;97131.84;5071033;28;20381;-82
2023/08/07 10:52:14;;;;;;;;;;;;;;;31.17;30.33;97143.25;5074760;28;19924;-81
2023/08/07 10:54:45;;;;;;;;;;;;;;;32.11;32.13;97133.72;5071848;27;19920;-82
2023/08/07 10:57:13;;;;;;;;;;;;;;;32.54;29.96;97130.22;5072079;27;19925;-83
2023/08/07 11:00:03;;;;;;;;;;;;;;;33.28;32.13;97121.19;5074602;27;19924;-86
2023/08/07 11:02:30;;;;;;;;;;;;;;;33.31;32.37;97131.53;5076235;27;20359;-84
2023/08/07 11:04:56;;;;;;;;;;;;;;;32.30;28.51;97126.28;5071794;27;20089;-84
2023/08/07 11:07:26;;;;;;;;;;;;;;;31.53;30.57;97124.66;5076832;27;19928;-85
2023/08/07 11:09:53;;;;;;;;;;;;;;;30.96;29.47;97136.13;5073284;27;19928;-84
2023/08/07 11:12:20;;;;;;;;;;;;;;;30.42;33.63;97140.75;5081847;27;19924;-85
2023/08/07 11:14:46;;;;;;;;;;;;;;;30.36;33.65;97139.94;5078473;27;19980;-84
2023/08/07 11:17:12;;;;;;;;;;;;;;;31.15;30.78;97151.47;5077661;27;19978;-83
2023/08/07 11:19:38;;;;;;;;;;;;;;;31.54;32.54;97151.75;5085239;27;20372;-84
2023/08/07 11:22:04;;;;;;;;;;;;;;;31.55;29.60;97144.03;5074774;28;19920;-84
2023/08/07 11:24:31;;;;;;;;;;;;;;;32.02;31.44;97146.09;5076785;27;20011;-84
2023/08/07 11:26:58;;;;;;;;;;;;;;;32.70;31.26;97154.25;5083620;28;19920;-85
2023/08/07 11:29:25;;;;;;;;;;;;;;;32.77;28.96;97150.91;5080347;27;20301;-84
2023/08/07 11:31:51;;;;;;;;;;;;;;;31.80;31.16;97163.00;5079407;27;19927;-82
2023/08/07 11:34:18;;;;;;;;;;;;;;;31.85;31.56;97165.09;5075847;27;20422;-83
2023/08/07 11:36:44;;;;;;;;;;;;;;;32.14;31.70;97172.47;5075678;27;19928;-81
2023/08/07 11:39:11;;;;;;;;;;;;;;;31.44;31.66;97156.06;5073116;27;19955;-81
2023/08/07 11:41:37;;;;;;;;;;;;;;;30.99;31.09;97171.19;5072329;27;20408;-82
2023/08/07 11:44:03;;;;;;;;;;;;;;;30.55;33.61;97172.31;5071397;27;20316;-81
2023/08/07 11:46:29;;;;;;;;;;;;;;;29.15;40.67;97185.06;5054272;27;19932;-83
2023/08/07 11:48:55;;;;;;;;;;;;;;;28.92;34.51;97197.28;5070306;27;19928;-83
2023/08/07 11:51:22;;;;;;;;;;;;;;;28.78;35.16;97208.63;5083575;27;19972;-82
2023/08/07 11:53:48;;;;;;;;;;;;;;;28.18;36.79;97195.63;5059755;27;19932;-83
2023/08/07 11:56:14;;;;;;;;;;;;;;;29.05;37.00;97208.31;5074504;27;19924;-83
2023/08/07 11:58:41;;;;;;;;;;;;;;;29.65;35.92;97213.34;5078923;27;19921;-83
2023/08/07 12:01:12;;;;;;;;;;;;;;;29.65;33.97;97222.63;5082162;27;19920;-83
2023/08/07 12:03:38;;;;;;;;;;;;;;;29.56;34.18;97219.16;5078548;27;19920;-84
2023/08/07 12:06:06;;;;;;;;;;;;;;;29.90;33.91;97221.19;5077058;28;19924;-84
2023/08/07 12:08:41;;;;;;;;;;;;;;;29.72;34.58;97222.22;5078113;27;19924;-83
2023/08/07 12:11:09;;;;;;;;;;;;;;;30.21;33.29;97215.69;5077243;27;19935;-83
2023/08/07 12:13:38;;;;;;;;;;;;;;;30.38;34.83;97232.91;5076626;27;19948;-83
2023/08/07 12:16:04;;;;;;;;;;;;;;;29.91;36.15;97228.44;5072271;27;19931;-83
2023/08/07 12:18:31;;;;;;;;;;;;;;;29.82;34.57;97235.00;5063333;28;19927;-84
2023/08/07 12:21:01;;;;;;;;;;;;;;;29.59;36.23;97246.47;5072603;28;19983;-84
2023/08/07 12:23:27;;;;;;;;;;;;;;;29.98;34.95;97230.84;5079180;28;19927;-84
2023/08/07 12:25:53;;;;;;;;;;;;;;;29.63;35.70;97247.03;5082071;27;19927;-82
2023/08/07 12:28:19;;;;;;;;;;;;;;;29.72;34.92;97244.84;5085021;27;19947;-84
2023/08/07 12:30:46;;;;;;;;;;;;;;;29.37;36.26;97252.53;5072451;28;19920;-83
2023/08/07 12:33:12;;;;;;;;;;;;;;;29.31;35.80;97255.28;5081174;27;19944;-84
2023/08/07 12:35:39;;;;;;;;;;;;;;;28.87;36.82;97243.19;5079699;27;20037;-82
2023/08/07 12:38:05;;;;;;;;;;;;;;;28.48;37.75;97247.28;5081621;27;19927;-84
2023/08/07 12:40:31;;;;;;;;;;;;;;;28.45;36.58;97256.75;5076801;27;19921;-84
2023/08/07 12:42:58;;;;;;;;;;;;;;;28.72;37.63;97265.00;5057854;28;19924;-82
2023/08/07 12:45:24;;;;;;;;;;;;;;;28.89;38.17;97268.94;5077832;27;20023;-82